Time;durP1;ratioP1;P1;durP2;ratioP2;P2;SDS_P1;SDS_P2;PMS_P1;PMS_P2;Temp;Humidity;BMP_temperature;BMP_pressure;BME280_temperature;BME280_humidity;BME280_pressure;Samples;Min_cycle;Max_cycle;Signal;HPM_P1;HPM_P2
2023/10/05 00:04:08;;;;;;;3.00;1.60;;;19.20;76.20;;;;;;10450690;28;20039;-57
2023/10/05 00:09:17;;;;;;;4.03;1.83;;;19.30;76.40;;;;;;10456523;28;20487;-57
2023/10/05 00:14:17;;;;;;;5.10;2.03;;;19.30;76.40;;;;;;10456085;28;20526;-58
2023/10/05 00:19:21;;;;;;;3.88;2.20;;;19.30;76.40;;;;;;10491955;28;20062;-58
2023/10/05 00:24:37;;;;;;;3.50;1.60;;;19.20;76.40;;;;;;10491479;28;20383;-58
2023/10/05 00:29:43;;;;;;;2.72;1.50;;;19.20;76.30;;;;;;10479681;28;20540;-57
2023/10/05 00:34:48;;;;;;;2.92;1.77;;;19.20;76.30;;;;;;10490919;28;20044;-57
2023/10/05 00:39:50;;;;;;;5.78;1.90;;;19.20;76.20;;;;;;10491466;28;20081;-58
2023/10/05 00:44:50;;;;;;;2.67;1.38;;;19.20;76.20;;;;;;10491163;28;20468;-58
2023/10/05 00:49:59;;;;;;;2.70;1.92;;;19.20;76.30;;;;;;10491589;28;20035;-57
2023/10/05 00:55:06;;;;;;;3.17;1.70;;;19.20;76.10;;;;;;10473846;28;20032;-58
2023/10/05 01:05:15;;;;;;;3.47;1.65;;;19.20;76.10;;;;;;10490714;28;20045;-57
2023/10/05 01:10:22;;;;;;;4.05;1.85;;;19.20;76.30;;;;;;10490752;28;20033;-58
2023/10/05 01:15:30;;;;;;;3.88;1.90;;;19.20;76.30;;;;;;10490277;28;20040;-57
2023/10/05 01:20:36;;;;;;;5.57;2.03;;;19.20;76.30;;;;;;10493347;28;20037;-58
2023/10/05 01:25:36;;;;;;;3.20;1.60;;;19.20;76.30;;;;;;10496801;28;20033;-57
2023/10/05 01:30:38;;;;;;;3.13;1.77;;;19.20;76.90;;;;;;10480339;28;20047;-57
2023/10/05 01:35:42;;;;;;;3.35;1.80;;;19.20;76.30;;;;;;10498198;28;20039;-58
2023/10/05 01:40:47;;;;;;;2.65;1.88;;;19.20;76.30;;;;;;10497737;28;20108;-58
2023/10/05 01:45:48;;;;;;;3.20;1.83;;;19.20;76.30;;;;;;10497567;28;20047;-57
2023/10/05 01:50:50;;;;;;;2.95;1.85;;;19.20;76.30;;;;;;10479630;28;20123;-58
2023/10/05 01:55:53;;;;;;;2.72;1.65;;;19.20;76.30;;;;;;10497068;28;20082;-57
2023/10/05 02:00:54;;;;;;;2.38;1.30;;;19.20;76.30;;;;;;10496988;28;20112;-58
2023/10/05 02:05:59;;;;;;;3.05;1.52;;;19.20;76.30;;;;;;10496795;28;20090;-57
2023/10/05 02:11:02;;;;;;;2.45;1.50;;;19.20;76.30;;;;;;10496900;28;20032;-58
2023/10/05 02:16:14;;;;;;;4.90;2.00;;;19.10;76.20;;;;;;10496402;28;20079;-58
2023/10/05 02:21:28;;;;;;;3.40;1.58;;;19.20;76.30;;;;;;10478839;28;20025;-57
2023/10/05 02:31:32;;;;;;;3.88;1.70;;;19.10;76.20;;;;;;10496359;28;20033;-58
2023/10/05 02:36:34;;;;;;;2.22;1.63;;;19.10;76.20;;;;;;10501444;28;20394;-57
2023/10/05 02:41:38;;;;;;;3.15;1.75;;;19.10;76.20;;;;;;10496009;28;20352;-57
2023/10/05 02:46:40;;;;;;;2.70;1.98;;;19.10;76.80;;;;;;10495345;28;20086;-58
2023/10/05 02:51:43;;;;;;;3.17;1.55;;;19.10;76.20;;;;;;10495469;28;20062;-58
2023/10/05 02:56:44;;;;;;;3.70;1.70;;;19.10;76.20;;;;;;10495165;28;20712;-57
2023/10/05 03:01:45;;;;;;;2.53;1.58;;;19.10;76.80;;;;;;10494914;28;20028;-58
2023/10/05 03:06:47;;;;;;;2.88;1.65;;;19.10;76.20;;;;;;10476929;28;20423;-58
2023/10/05 03:11:49;;;;;;;4.15;1.70;;;19.10;76.20;;;;;;10494615;28;20032;-58
2023/10/05 03:16:56;;;;;;;3.60;1.48;;;19.10;76.20;;;;;;10459703;28;20040;-58
2023/10/05 03:22:04;;;;;;;3.13;1.48;;;19.10;76.20;;;;;;10494132;28;20399;-57
2023/10/05 03:27:07;;;;;;;3.15;1.67;;;19.10;76.80;;;;;;10493516;28;20060;-58
2023/10/05 03:37:13;;;;;;;2.53;1.50;;;19.10;76.20;;;;;;10491172;28;20044;-57
2023/10/05 03:42:14;;;;;;;2.75;1.70;;;19.10;76.30;;;;;;10490248;28;20506;-56
2023/10/05 03:47:14;;;;;;;4.82;1.45;;;19.10;76.40;;;;;;10490356;28;20043;-57
2023/10/05 03:52:15;;;;;;;5.65;1.60;;;19.20;76.10;;;;;;10489825;28;20036;-57
2023/10/05 03:57:16;;;;;;;3.63;1.50;;;19.20;76.40;;;;;;10488990;28;20449;-58
2023/10/05 04:02:18;;;;;;;3.13;1.70;;;19.20;76.30;;;;;;10488971;28;20257;-58
2023/10/05 04:07:21;;;;;;;4.22;2.42;;;19.20;76.30;;;;;;10488659;28;20440;-56
2023/10/05 04:12:21;;;;;;;5.28;2.13;;;19.20;76.20;;;;;;10490613;28;20032;-58
2023/10/05 04:17:22;;;;;;;3.05;1.42;;;19.20;76.20;;;;;;10490959;28;20053;-58
2023/10/05 04:22:24;;;;;;;3.65;1.60;;;19.20;76.30;;;;;;10489172;28;20038;-57
2023/10/05 04:27:24;;;;;;;3.30;1.48;;;19.10;76.30;;;;;;10488357;28;20025;-57
2023/10/05 04:32:26;;;;;;;4.25;1.45;;;19.10;76.30;;;;;;10472838;28;20032;-57
2023/10/05 04:37:30;;;;;;;3.22;1.38;;;19.10;76.30;;;;;;10490343;28;20032;-57
2023/10/05 04:42:31;;;;;;;4.70;1.38;;;19.10;76.40;;;;;;10491078;28;20051;-57
2023/10/05 04:47:33;;;;;;;3.10;1.20;;;19.10;76.30;;;;;;10490853;28;20024;-57
2023/10/05 04:52:34;;;;;;;3.05;1.50;;;19.10;76.30;;;;;;10490919;28;20068;-58
2023/10/05 04:57:35;;;;;;;3.95;1.30;;;19.10;76.30;;;;;;10490556;28;20028;-57
2023/10/05 05:02:58;;;;;;;5.18;2.70;;;19.10;76.40;;;;;;10499937;28;20086;-58
2023/10/05 05:07:56;;;;;;;8.23;2.38;;;19.20;76.10;;;;;;10498884;28;20494;-57
2023/10/05 05:12:57;;;;;;;6.13;2.20;;;19.30;76.30;;;;;;10481369;28;20032;-58
2023/10/05 05:17:58;;;;;;;12.23;2.35;;;19.40;76.10;;;;;;10498149;28;20044;-57
2023/10/05 05:22:58;;;;;;;6.82;1.92;;;19.30;75.60;;;;;;10499024;28;20016;-58
2023/10/05 05:28:04;;;;;;;7.50;2.08;;;19.40;76.10;;;;;;10498628;28;20028;-58
2023/10/05 05:33:11;;;;;;;10.20;3.22;;;19.40;75.80;;;;;;10489050;28;20569;-58
2023/10/05 05:38:11;;;;;;;12.90;2.97;;;19.30;76.20;;;;;;10495253;28;20049;-58
2023/10/05 05:43:12;;;;;;;12.98;2.60;;;19.20;76.20;;;;;;10480395;28;20031;-57
2023/10/05 05:48:16;;;;;;;16.65;3.83;;;19.20;76.10;;;;;;10497465;28;20031;-58
2023/10/05 05:53:16;;;;;;;13.25;2.83;;;19.20;76.50;;;;;;10497729;28;20480;-58
2023/10/05 05:58:18;;;;;;;13.77;3.25;;;19.20;76.50;;;;;;10497216;28;20036;-59
2023/10/05 06:03:18;;;;;;;6.43;2.45;;;19.20;76.60;;;;;;10497237;28;20029;-58
2023/10/05 06:08:19;;;;;;;9.90;3.22;;;19.20;76.30;;;;;;10496828;28;20028;-58
2023/10/05 06:13:20;;;;;;;10.93;3.05;;;19.20;76.20;;;;;;10496485;28;20384;-57
2023/10/05 06:18:21;;;;;;;6.53;2.90;;;19.20;76.20;;;;;;10494853;28;20052;-58
2023/10/05 06:23:21;;;;;;;11.32;2.95;;;19.10;76.40;;;;;;10495408;28;20035;-58
2023/10/05 06:28:22;;;;;;;9.80;2.53;;;19.10;76.50;;;;;;10495213;28;20085;-57
2023/10/05 06:33:24;;;;;;;5.68;2.30;;;19.10;76.50;;;;;;10495645;28;20482;-57
2023/10/05 06:38:25;;;;;;;8.77;2.38;;;19.10;76.50;;;;;;10493377;28;20107;-58
2023/10/05 06:43:26;;;;;;;5.95;2.13;;;19.10;76.50;;;;;;10495315;28;20472;-57
2023/10/05 06:48:27;;;;;;;7.07;2.20;;;19.00;76.50;;;;;;10494247;28;20382;-55
2023/10/05 06:53:27;;;;;;;8.35;2.13;;;19.00;76.50;;;;;;10476389;28;20029;-57
2023/10/05 06:58:28;;;;;;;4.95;1.95;;;19.00;76.40;;;;;;10484680;28;20037;-57
2023/10/05 07:03:29;;;;;;;5.93;2.13;;;19.10;76.50;;;;;;10493981;28;20483;-57
2023/10/05 07:08:30;;;;;;;7.25;2.10;;;19.00;76.40;;;;;;10493394;28;20034;-57
2023/10/05 07:13:31;;;;;;;8.68;2.58;;;19.00;76.40;;;;;;10493207;28;20036;-56
2023/10/05 07:18:32;;;;;;;5.97;2.80;;;19.00;76.40;;;;;;10492855;28;20032;-57
2023/10/05 07:23:37;;;;;;;7.63;2.25;;;19.00;76.40;;;;;;10493204;28;20078;-57
2023/10/05 07:28:39;;;;;;;5.63;1.70;;;19.10;76.40;;;;;;10492835;28;20363;-57
2023/10/05 07:33:41;;;;;;;4.13;2.38;;;19.00;76.30;;;;;;10474441;28;20066;-57
2023/10/05 07:38:41;;;;;;;3.50;1.65;;;19.00;76.30;;;;;;10492649;28;20086;-57
2023/10/05 07:43:44;;;;;;;5.68;2.05;;;19.00;76.30;;;;;;10492009;28;20054;-57
2023/10/05 07:48:46;;;;;;;2.65;1.55;;;19.00;76.30;;;;;;10491335;28;20028;-57
2023/10/05 07:53:47;;;;;;;4.65;2.35;;;19.00;76.30;;;;;;10491555;28;20040;-56
2023/10/05 07:58:48;;;;;;;8.70;1.98;;;19.00;76.30;;;;;;10473780;28;20036;-58
2023/10/05 08:03:49;;;;;;;5.45;2.25;;;19.00;76.30;;;;;;10491485;28;20101;-57
2023/10/05 08:08:50;;;;;;;5.55;2.47;;;19.00;76.20;;;;;;10491126;28;20035;-57
2023/10/05 08:13:52;;;;;;;4.15;2.45;;;19.00;76.30;;;;;;10491013;28;20048;-57
2023/10/05 08:18:54;;;;;;;3.45;1.67;;;19.00;76.20;;;;;;10472605;28;20033;-57
2023/10/05 08:23:54;;;;;;;5.40;2.00;;;19.00;76.10;;;;;;10491223;28;20025;-57
2023/10/05 08:28:57;;;;;;;4.75;1.63;;;19.10;76.20;;;;;;10472488;28;20058;-57
2023/10/05 08:34:00;;;;;;;5.05;1.77;;;19.10;76.00;;;;;;10490097;28;20123;-57
2023/10/05 08:39:03;;;;;;;4.03;1.88;;;19.00;75.90;;;;;;10489869;28;20064;-57
2023/10/05 08:49:38;;;;;;;4.55;1.98;;;19.10;76.00;;;;;;10472370;28;20438;-56
2023/10/05 08:54:40;;;;;;;3.38;1.75;;;19.10;76.00;;;;;;10490653;28;20056;-57
2023/10/05 08:59:45;;;;;;;3.00;1.50;;;19.10;76.00;;;;;;10480050;28;20033;-57
2023/10/05 09:05:00;;;;;;;5.30;2.20;;;19.10;75.90;;;;;;10490290;28;20481;-58
2023/10/05 09:10:00;;;;;;;3.85;2.03;;;19.10;76.00;;;;;;10471086;28;20106;-58
2023/10/05 09:20:23;;;;;;;6.00;2.25;;;19.10;75.90;;;;;;10489576;28;20090;-56
2023/10/05 09:25:36;;;;;;;5.20;2.15;;;19.10;75.80;;;;;;10489514;28;20498;-58
2023/10/05 09:30:55;;;;;;;3.63;1.52;;;19.10;75.90;;;;;;10489243;28;20296;-57
2023/10/05 09:36:06;;;;;;;4.00;2.28;;;19.10;75.90;;;;;;10490023;28;20361;-58
2023/10/05 09:41:08;;;;;;;2.85;1.55;;;19.10;75.90;;;;;;10489055;28;20028;-58
2023/10/05 09:46:09;;;;;;;4.95;2.22;;;19.10;75.90;;;;;;10495148;28;20035;-58
2023/10/05 09:51:13;;;;;;;4.80;1.77;;;19.10;75.90;;;;;;10478319;28;20107;-56
2023/10/05 09:56:19;;;;;;;3.47;1.80;;;19.10;76.00;;;;;;10496798;28;20127;-57
2023/10/05 10:01:22;;;;;;;5.63;1.65;;;19.10;75.90;;;;;;10495734;28;20495;-57
2023/10/05 10:06:28;;;;;;;3.72;1.50;;;19.10;75.90;;;;;;10496575;28;20586;-56
2023/10/05 10:11:31;;;;;;;2.40;1.45;;;19.10;75.90;;;;;;10495752;28;20051;-56
2023/10/05 10:16:34;;;;;;;3.05;1.67;;;19.10;76.00;;;;;;10495403;28;20047;-57
2023/10/05 10:22:00;;;;;;;5.75;2.17;;;19.10;75.90;;;;;;10495502;28;20036;-56
2023/10/05 10:27:07;;;;;;;3.30;1.42;;;19.10;76.00;;;;;;10495849;28;20032;-58
2023/10/05 10:32:19;;;;;;;2.90;1.50;;;19.10;76.10;;;;;;10494490;28;20020;-57
2023/10/05 10:37:39;;;;;;;6.28;2.10;;;19.10;75.90;;;;;;10494865;28;20028;-57
2023/10/05 10:48:09;;;;;;;3.75;2.20;;;19.10;75.80;;;;;;10495275;28;20039;-58
2023/10/05 10:53:19;;;;;;;3.65;1.77;;;19.10;75.80;;;;;;10494518;28;20101;-58
2023/10/05 10:58:24;;;;;;;1.52;1.13;;;19.10;76.10;;;;;;10493137;28;20028;-57
2023/10/05 11:03:30;;;;;;;3.88;1.52;;;19.20;76.10;;;;;;10460648;28;20017;-56
2023/10/05 11:08:34;;;;;;;2.88;1.48;;;19.20;76.00;;;;;;10494015;28;20051;-57
2023/10/05 11:13:43;;;;;;;2.60;1.42;;;19.20;75.90;;;;;;10493098;28;20387;-56
2023/10/05 11:19:04;;;;;;;3.40;1.67;;;19.20;75.80;;;;;;10493493;28;20115;-58
2023/10/05 11:24:08;;;;;;;3.22;1.42;;;19.20;75.80;;;;;;10492378;28;20099;-58
2023/10/05 11:29:15;;;;;;;4.53;1.70;;;19.20;75.90;;;;;;10474776;28;20115;-56
2023/10/05 11:34:19;;;;;;;2.80;1.30;;;19.20;75.90;;;;;;10492250;28;20024;-57
2023/10/05 11:39:27;;;;;;;2.50;1.23;;;19.20;75.90;;;;;;10492814;28;20047;-57
2023/10/05 11:44:28;;;;;;;3.00;1.63;;;19.20;75.80;;;;;;10491925;28;20028;-58
2023/10/05 11:49:30;;;;;;;4.20;1.60;;;19.20;75.80;;;;;;10492271;28;20039;-58
2023/10/05 11:54:31;;;;;;;2.40;1.20;;;19.20;75.80;;;;;;10491877;28;20041;-58
2023/10/05 11:59:35;;;;;;;3.78;1.67;;;19.20;75.80;;;;;;10482696;28;20470;-57
2023/10/05 12:04:39;;;;;;;3.58;1.42;;;19.20;75.80;;;;;;10473815;28;20052;-57
2023/10/05 12:09:43;;;;;;;3.22;1.50;;;19.20;75.80;;;;;;10491404;28;20539;-57
2023/10/05 12:14:44;;;;;;;2.42;1.30;;;19.20;75.80;;;;;;10473213;28;20139;-57
2023/10/05 12:19:44;;;;;;;2.83;1.67;;;19.20;75.80;;;;;;10489404;28;20025;-57
2023/10/05 12:24:45;;;;;;;3.13;1.50;;;19.20;75.80;;;;;;10490702;28;20040;-57
2023/10/05 12:29:46;;;;;;;2.90;1.48;;;19.20;75.80;;;;;;10490826;28;20027;-57
2023/10/05 12:34:51;;;;;;;5.18;1.63;;;19.20;75.80;;;;;;10490320;28;20041;-57
2023/10/05 12:39:52;;;;;;;3.40;2.42;;;19.20;75.80;;;;;;10490477;28;20037;-57
2023/10/05 12:44:52;;;;;;;3.13;1.60;;;19.20;75.80;;;;;;10472702;28;20035;-58
2023/10/05 12:49:53;;;;;;;5.63;1.90;;;19.20;75.80;;;;;;10472667;28;20025;-57
2023/10/05 12:54:56;;;;;;;5.63;1.70;;;19.20;75.80;;;;;;10490062;28;20032;-58
2023/10/05 12:59:57;;;;;;;2.88;1.50;;;19.20;75.80;;;;;;10490063;28;20035;-57
2023/10/05 13:04:59;;;;;;;3.22;1.42;;;19.20;75.80;;;;;;10489445;28;20033;-58
2023/10/05 13:10:04;;;;;;;3.17;1.60;;;19.20;75.80;;;;;;10489921;28;20164;-57
2023/10/05 13:15:08;;;;;;;3.15;1.30;;;19.20;75.70;;;;;;10489609;28;20080;-57
2023/10/05 13:20:14;;;;;;;2.50;1.60;;;19.20;75.70;;;;;;10494646;28;20054;-58
2023/10/05 13:25:15;;;;;;;3.50;1.40;;;19.20;75.70;;;;;;10497395;28;20464;-58
2023/10/05 13:30:22;;;;;;;2.47;1.70;;;19.20;75.70;;;;;;10497832;28;20029;-57
2023/10/05 13:35:28;;;;;;;2.53;1.80;;;19.20;75.70;;;;;;10497159;28;20407;-57
2023/10/05 13:40:34;;;;;;;2.55;1.70;;;19.20;75.60;;;;;;10497443;28;20384;-58
2023/10/05 13:45:35;;;;;;;3.45;1.95;;;19.20;75.60;;;;;;10496712;28;20504;-57
2023/10/05 13:50:35;;;;;;;3.47;1.48;;;19.20;75.60;;;;;;10497137;28;20082;-58
2023/10/05 13:55:36;;;;;;;2.80;1.20;;;19.20;75.60;;;;;;10496210;28;20559;-57
2023/10/05 14:00:41;;;;;;;3.47;1.80;;;19.20;75.60;;;;;;10478025;28;20028;-58
2023/10/05 14:05:50;;;;;;;2.00;1.50;;;19.20;75.60;;;;;;10496008;28;20135;-58
2023/10/05 14:10:51;;;;;;;2.75;1.23;;;19.20;75.70;;;;;;10496244;28;20029;-57
2023/10/05 14:15:52;;;;;;;4.53;2.22;;;19.20;75.70;;;;;;10495499;28;20045;-57
2023/10/05 14:20:53;;;;;;;3.35;1.90;;;19.10;75.70;;;;;;10495958;28;20461;-57
2023/10/05 14:25:54;;;;;;;2.17;1.52;;;19.10;75.60;;;;;;10495265;28;20021;-57
2023/10/05 14:30:57;;;;;;;2.22;1.45;;;19.10;75.70;;;;;;10494240;28;20111;-58
2023/10/05 14:35:58;;;;;;;3.05;1.55;;;19.10;75.60;;;;;;10494452;28;20119;-58
2023/10/05 14:40:59;;;;;;;3.08;1.67;;;19.20;75.60;;;;;;10494049;28;20032;-57
2023/10/05 14:46:00;;;;;;;2.80;1.40;;;19.20;75.60;;;;;;10494079;28;20073;-58
2023/10/05 14:51:10;;;;;;;6.28;3.10;;;19.20;75.60;;;;;;10491450;28;20150;-57
2023/10/05 14:56:15;;;;;;;2.38;1.48;;;19.20;75.40;;;;;;10490661;28;20028;-58
2023/10/05 15:01:16;;;;;;;4.18;2.05;;;19.30;75.30;;;;;;10493068;28;20075;-58
2023/10/05 15:06:18;;;;;;;2.60;1.80;;;19.30;75.20;;;;;;10493928;28;20052;-59
2023/10/05 15:11:20;;;;;;;2.95;1.67;;;19.30;75.30;;;;;;10493743;28;20568;-57
2023/10/05 15:16:22;;;;;;;4.38;1.63;;;19.20;75.30;;;;;;10493119;28;20079;-58
2023/10/05 15:21:23;;;;;;;2.83;1.90;;;19.20;75.50;;;;;;10493342;28;20052;-59
2023/10/05 15:26:24;;;;;;;2.45;1.60;;;19.20;75.70;;;;;;10492695;28;20064;-58
2023/10/05 15:31:24;;;;;;;4.15;2.28;;;19.20;75.60;;;;;;10483776;28;20035;-59
2023/10/05 15:36:25;;;;;;;6.63;1.95;;;19.20;75.70;;;;;;10492256;28;20032;-57
2023/10/05 15:41:26;;;;;;;4.68;1.83;;;19.20;75.50;;;;;;10491881;28;20033;-58
2023/10/05 15:46:27;;;;;;;5.88;1.83;;;19.40;75.50;;;;;;10490855;28;20056;-55
2023/10/05 15:51:31;;;;;;;12.77;2.20;;;19.50;75.20;;;;;;10487829;28;20468;-56
2023/10/05 15:56:31;;;;;;;7.80;2.13;;;19.80;74.70;;;;;;10487526;28;20040;-56
2023/10/05 16:01:32;;;;;;;9.25;2.95;;;20.00;75.30;;;;;;10491004;28;20033;-56
2023/10/05 16:06:33;;;;;;;8.02;2.50;;;20.20;75.40;;;;;;10491003;28;20414;-56
2023/10/05 16:11:34;;;;;;;7.85;2.20;;;20.40;75.50;;;;;;10474730;28;20030;-57
2023/10/05 16:16:34;;;;;;;10.95;2.75;;;20.30;75.90;;;;;;10491858;28;20041;-56
2023/10/05 16:21:35;;;;;;;10.55;2.88;;;20.50;76.10;;;;;;10491017;28;20048;-56
2023/10/05 16:26:39;;;;;;;11.88;2.65;;;20.30;76.30;;;;;;10491055;28;20392;-55
2023/10/05 16:31:40;;;;;;;12.55;3.05;;;20.20;76.50;;;;;;10490301;28;20051;-57
2023/10/05 16:36:45;;;;;;;11.48;2.92;;;20.20;76.40;;;;;;10491227;28;20037;-57
2023/10/05 16:41:46;;;;;;;18.20;3.72;;;20.20;76.10;;;;;;10491561;28;20090;-56
2023/10/05 16:46:47;;;;;;;13.68;4.47;;;20.10;76.60;;;;;;10472146;28;20383;-56
2023/10/05 16:51:48;;;;;;;14.90;4.30;;;20.10;76.80;;;;;;10490640;28;20029;-56
2023/10/05 16:56:49;;;;;;;16.02;3.20;;;20.10;76.90;;;;;;10490494;28;20032;-57
2023/10/05 17:01:50;;;;;;;21.23;4.35;;;20.00;76.70;;;;;;10481217;28;20047;-57
2023/10/05 17:06:50;;;;;;;19.02;5.75;;;19.90;77.00;;;;;;10490023;28;20170;-57
2023/10/05 17:11:51;;;;;;;23.27;3.75;;;19.90;77.10;;;;;;10479330;28;20772;-57
2023/10/05 17:16:54;;;;;;;19.40;4.78;;;19.80;77.10;;;;;;10476867;28;20048;-57
2023/10/05 17:21:55;;;;;;;16.15;3.78;;;19.70;77.40;;;;;;10483398;28;20067;-57
2023/10/05 17:26:56;;;;;;;11.02;5.10;;;19.70;77.60;;;;;;10483900;28;20397;-58
2023/10/05 17:31:57;;;;;;;17.40;6.60;;;19.60;77.30;;;;;;10477315;28;20036;-57
2023/10/05 17:36:58;;;;;;;14.70;6.30;;;19.70;78.10;;;;;;10450193;28;20124;-57
2023/10/05 17:41:58;;;;;;;19.30;7.57;;;19.70;77.80;;;;;;10456734;28;20167;-57
2023/10/05 17:46:59;;;;;;;15.80;6.70;;;19.70;77.90;;;;;;10479989;28;20447;-57
2023/10/05 17:52:01;;;;;;;18.73;8.15;;;19.70;77.90;;;;;;10486651;28;20033;-57
2023/10/05 17:57:03;;;;;;;19.25;6.40;;;19.60;78.00;;;;;;10470747;28;20021;-57
2023/10/05 18:02:07;;;;;;;16.33;6.40;;;19.50;78.20;;;;;;10470308;28;20367;-57
2023/10/05 18:07:07;;;;;;;19.48;6.63;;;19.60;78.30;;;;;;10494746;28;20032;-57
2023/10/05 18:12:08;;;;;;;18.35;6.97;;;19.60;78.20;;;;;;10496604;28;20063;-57
2023/10/05 18:17:09;;;;;;;14.40;6.30;;;19.60;78.10;;;;;;10495862;28;20056;-57
2023/10/05 18:22:10;;;;;;;15.68;6.10;;;19.50;78.10;;;;;;10475460;28;20033;-56
2023/10/05 18:27:11;;;;;;;14.93;8.85;;;19.60;78.20;;;;;;10485429;28;20046;-57
2023/10/05 18:32:14;;;;;;;14.43;7.25;;;19.60;78.00;;;;;;10483475;28;20032;-57
2023/10/05 18:37:14;;;;;;;15.95;6.55;;;19.50;78.00;;;;;;10490001;28;20036;-55
2023/10/05 18:42:15;;;;;;;12.30;6.88;;;19.50;78.10;;;;;;10470290;28;20036;-57
2023/10/05 18:47:16;;;;;;;13.45;8.05;;;19.50;78.10;;;;;;10495162;28;20025;-57
2023/10/05 18:52:16;;;;;;;12.40;6.30;;;19.40;78.00;;;;;;10495505;28;20033;-57
2023/10/05 18:57:17;;;;;;;11.98;7.13;;;19.40;78.00;;;;;;10494887;28;20029;-57
2023/10/05 19:02:18;;;;;;;10.85;6.47;;;19.40;77.90;;;;;;10494325;28;20032;-58
2023/10/05 19:07:19;;;;;;;14.38;7.10;;;19.40;77.90;;;;;;10494673;28;20375;-57
2023/10/05 19:12:22;;;;;;;10.63;6.35;;;19.40;77.80;;;;;;10494619;28;20040;-56
2023/10/05 19:17:23;;;;;;;11.10;6.20;;;19.40;77.80;;;;;;10491442;28;20091;-57
2023/10/05 19:22:24;;;;;;;14.30;4.97;;;19.40;77.80;;;;;;10492835;28;20032;-57
2023/10/05 19:27:25;;;;;;;8.02;5.22;;;19.30;77.70;;;;;;10491890;28;20472;-57
2023/10/05 19:32:26;;;;;;;8.65;4.95;;;19.30;77.70;;;;;;10490946;28;20020;-57
2023/10/05 19:37:26;;;;;;;11.85;4.88;;;19.30;77.70;;;;;;10492096;28;20476;-57
2023/10/05 19:42:27;;;;;;;8.73;5.47;;;19.30;77.70;;;;;;10489192;28;20036;-57
2023/10/05 19:47:28;;;;;;;7.68;4.72;;;19.30;77.70;;;;;;10489259;28;20023;-56
2023/10/05 19:52:29;;;;;;;11.82;5.38;;;19.30;77.60;;;;;;10482728;28;20032;-57
2023/10/05 19:57:32;;;;;;;7.30;4.63;;;19.20;77.60;;;;;;10491658;28;20472;-57
2023/10/05 20:02:32;;;;;;;9.65;5.05;;;19.30;77.70;;;;;;10484256;28;20094;-57
2023/10/05 20:07:33;;;;;;;10.27;5.32;;;19.30;77.60;;;;;;10492056;28;20024;-57
2023/10/05 20:12:34;;;;;;;7.93;4.93;;;19.20;77.60;;;;;;10492227;28;20469;-56
2023/10/05 20:17:36;;;;;;;7.82;4.60;;;19.20;77.60;;;;;;10491690;28;20682;-57
2023/10/05 20:22:41;;;;;;;10.57;4.47;;;19.20;77.50;;;;;;10492144;28;20119;-57
2023/10/05 20:27:41;;;;;;;8.25;4.63;;;19.20;77.50;;;;;;10483402;28;20036;-57
2023/10/05 20:32:42;;;;;;;8.73;3.67;;;19.20;77.50;;;;;;10491451;28;20705;-57
2023/10/05 20:37:43;;;;;;;4.60;3.92;;;19.20;77.50;;;;;;10491211;28;20029;-57
2023/10/05 20:42:44;;;;;;;7.72;5.38;;;19.20;77.40;;;;;;10491293;28;20029;-57
2023/10/05 20:47:44;;;;;;;5.93;3.40;;;19.20;77.40;;;;;;10472998;28;20017;-57
2023/10/05 20:52:45;;;;;;;7.20;4.32;;;19.20;77.50;;;;;;10491719;28;20348;-57
2023/10/05 20:57:46;;;;;;;5.85;3.50;;;19.20;77.50;;;;;;10487841;28;20020;-57
2023/10/05 21:02:46;;;;;;;5.03;4.10;;;19.20;77.40;;;;;;10484818;28;20032;-57
2023/10/05 21:07:47;;;;;;;6.13;4.10;;;19.20;77.40;;;;;;10491014;28;20025;-57
2023/10/05 21:12:48;;;;;;;7.53;3.60;;;19.20;77.50;;;;;;10490805;28;20113;-57
2023/10/05 21:17:49;;;;;;;5.80;4.03;;;19.20;77.50;;;;;;10490729;28;20041;-57
2023/10/05 21:22:51;;;;;;;5.63;3.80;;;19.20;77.50;;;;;;10490597;28;20021;-57
2023/10/05 21:27:51;;;;;;;6.40;3.78;;;19.10;77.40;;;;;;10504286;28;20031;-57
2023/10/05 21:32:52;;;;;;;5.47;3.58;;;19.10;77.40;;;;;;10490354;28;20033;-57
2023/10/05 21:37:53;;;;;;;5.43;3.88;;;19.10;77.40;;;;;;10490529;28;20051;-56
2023/10/05 21:42:54;;;;;;;4.15;3.35;;;19.10;77.40;;;;;;10497462;28;20051;-56
2023/10/05 21:47:54;;;;;;;6.25;2.85;;;19.10;77.40;;;;;;10498481;28;20033;-57
2023/10/05 21:52:55;;;;;;;5.72;3.08;;;19.10;77.40;;;;;;10497579;28;20028;-57
2023/10/05 21:57:56;;;;;;;8.40;3.80;;;19.10;77.40;;;;;;10497666;28;20025;-57
2023/10/05 22:02:56;;;;;;;5.35;3.92;;;19.10;77.40;;;;;;10497188;28;20081;-57
2023/10/05 22:07:58;;;;;;;5.18;3.53;;;19.10;77.40;;;;;;10497801;28;20483;-57
2023/10/05 22:12:59;;;;;;;6.68;3.10;;;19.10;77.30;;;;;;10497294;28;20048;-57
2023/10/05 22:18:01;;;;;;;6.00;3.50;;;19.10;77.30;;;;;;10495912;28;20041;-57
2023/10/05 22:23:06;;;;;;;3.78;2.97;;;19.00;77.20;;;;;;10496347;28;20059;-57
2023/10/05 22:28:08;;;;;;;5.78;3.50;;;19.10;77.30;;;;;;10478546;28;20048;-57
2023/10/05 22:33:09;;;;;;;8.93;4.45;;;19.10;77.20;;;;;;10496388;28;20666;-56
2023/10/05 22:38:10;;;;;;;7.50;3.20;;;19.10;77.20;;;;;;10496518;28;20593;-57
2023/10/05 22:43:11;;;;;;;4.18;2.70;;;19.00;77.20;;;;;;10493825;28;20090;-57
2023/10/05 22:48:11;;;;;;;5.15;3.03;;;19.00;77.20;;;;;;10495657;28;20551;-56
2023/10/05 22:53:12;;;;;;;3.85;2.70;;;19.00;77.20;;;;;;10494110;28;20024;-57
2023/10/05 22:58:13;;;;;;;4.78;2.72;;;19.00;77.20;;;;;;10488430;28;20021;-57
2023/10/05 23:03:14;;;;;;;4.55;2.90;;;19.00;77.20;;;;;;10492973;28;20029;-56
2023/10/05 23:08:14;;;;;;;4.93;2.25;;;19.00;77.20;;;;;;10495110;28;20041;-57
2023/10/05 23:13:15;;;;;;;4.47;3.13;;;19.00;77.20;;;;;;10494638;28;20507;-56
2023/10/05 23:18:16;;;;;;;4.60;2.65;;;19.00;77.10;;;;;;10494713;28;20060;-57
2023/10/05 23:23:17;;;;;;;4.60;2.92;;;19.00;77.10;;;;;;10494280;28;20039;-56
2023/10/05 23:28:18;;;;;;;5.60;2.42;;;19.00;77.10;;;;;;10494191;28;20036;-57
2023/10/05 23:33:25;;;;;;;4.38;2.15;;;19.00;77.10;;;;;;10494120;28;20489;-57
2023/10/05 23:38:33;;;;;;;4.03;3.03;;;19.00;77.10;;;;;;10493767;28;20093;-57
2023/10/05 23:43:34;;;;;;;4.32;2.58;;;19.00;77.10;;;;;;10493295;28;20613;-57
2023/10/05 23:48:34;;;;;;;3.95;2.80;;;19.00;77.00;;;;;;10492611;28;20032;-57
2023/10/05 23:53:36;;;;;;;6.63;2.78;;;19.00;77.10;;;;;;10493042;28;20035;-57
2023/10/05 23:58:36;;;;;;;3.72;2.35;;;19.00;77.00;;;;;;10483132;28;20580;-57
